Portada
METAR-TAF:

METAR-TAF

Aeroports :

Taipei, Taiwan

latitud: 25-04N, longitud: 121-33E, altitud: 6 m

Observació

L'informe es va fer fa 45 minuts, a les 15:00 UTC
Vent 12 kt del Oest, variant entre Sud-Oest i Oest/Nord-Oest
Temperatura 31°C
Humitat 75%
Pressió 1004 hPa
Visibilitat 10 km o més
Escasses núvols a una alçada de 2000 ft
Núvols disperses a una alçada de 20000 ft

METAR: RCSS 181500Z 27012KT 230V300 9999 FEW020 SCT200 31/26 Q1004 WS R28 NOSIG RMK 27011KT/R10 A2966

Hora: 23:45 (15:45 UTC)

Pronòstic

L'informe es va fer fa 4 hores i 45 minuts, a les 11:00 UTC
Pronòstic vàlid del 18 a les 12 UTC al 19 a les 12 UTC
Vent 12 kt del Oest/Sud-Oest
Visibilitat 10 km o més
Escasses núvols a una alçada de 2000 ft
Temporalment
l' 18 a les 16 UTC al 18 a les 22 UTC
Vent 8 kt del Oest/Nord-Oest
Temporalment
l' 19 a les 04 UTC al 19 a les 10 UTC
Vent 17 kt del Oest/Nord-Oest

TAF: RCSS 181100Z 1812/1912 25012KT 9999 FEW020 TEMPO 1816/1822 30008KT TEMPO 1904/1910 29017KT

Observacions i pronòstics meteorològics de més de 4000 aeroports (METAR i TAF).

Les estacions disponibles són els punts grocs i vermells al mapa.

Posi el ratolí al punt desitjat per veure el nom de l'estació.

Feu clic per veure les observacions i els pronòstics meteorològics.

Per canviar el mapa: feu clic els botons verds amb una creu de color negre per apropar; al botó verd amb un guió per allunyar la imatge; o en les fletxes verdes per a mapes adjacents.


METAR-TAF: